createdAt,value
2019-04-27T00:02:05.911Z,7.25
2019-04-27T00:04:48.654Z,8.15
2019-04-27T00:07:36.030Z,7.00
2019-04-27T00:10:37.400Z,6.80
2019-04-27T00:13:07.983Z,6.72
2019-04-27T00:15:47.277Z,7.08
2019-04-27T00:18:36.412Z,6.90
2019-04-27T00:21:32.713Z,6.45
2019-04-27T00:24:03.470Z,6.97
2019-04-27T00:26:33.911Z,6.55
2019-04-27T00:29:04.494Z,6.97
2019-04-27T00:31:34.994Z,6.90
2019-04-27T00:34:06.291Z,6.40
2019-04-27T00:36:44.436Z,6.25
2019-04-27T00:39:25.112Z,6.25
2019-04-27T00:41:55.274Z,6.90
2019-04-27T00:44:25.830Z,7.10
2019-04-27T00:46:55.890Z,7.33
2019-04-27T00:49:25.884Z,6.58
2019-04-27T00:51:56.391Z,6.60
2019-04-27T00:54:26.249Z,6.33
2019-04-27T00:57:06.195Z,6.95
2019-04-27T00:59:55.157Z,6.10
2019-04-27T01:02:55.726Z,6.03
2019-04-27T01:05:31.265Z,5.62
2019-04-27T01:08:05.719Z,6.03
2019-04-27T01:10:37.252Z,6.20
2019-04-27T01:13:08.387Z,5.83
2019-04-27T01:15:38.150Z,5.47
2019-04-27T01:18:14.616Z,5.83
2019-04-27T01:20:40.622Z,5.60
2019-04-27T01:23:11.140Z,5.40
2019-04-27T01:25:59.713Z,5.90
2019-04-27T01:28:34.558Z,5.70
2019-04-27T01:31:09.527Z,5.37
2019-04-27T01:33:41.413Z,5.40
2019-04-27T01:36:12.056Z,5.50
2019-04-27T01:38:42.199Z,5.55
2019-04-27T01:41:12.397Z,5.53
2019-04-27T01:43:42.257Z,5.37
2019-04-27T01:46:12.227Z,5.28
2019-04-27T01:48:42.437Z,5.53
2019-04-27T01:51:12.827Z,5.85
2019-04-27T01:53:42.665Z,5.22
2019-04-27T01:56:12.903Z,5.45
2019-04-27T01:58:43.130Z,5.60
2019-04-27T02:01:31.165Z,5.33
2019-04-27T02:04:09.260Z,5.47
2019-04-27T02:06:40.624Z,5.87
2019-04-27T02:09:12.830Z,5.85
2019-04-27T02:11:43.113Z,6.25
2019-04-27T02:14:13.102Z,6.00
2019-04-27T02:16:43.610Z,5.72
2019-04-27T02:19:13.560Z,6.42
2019-04-27T02:21:43.800Z,6.05
2019-04-27T02:24:14.324Z,6.20
2019-04-27T02:26:44.031Z,6.12
2019-04-27T02:29:35.865Z,6.20
2019-04-27T02:32:29.531Z,6.20
2019-04-27T02:35:01.723Z,5.97
2019-04-27T02:37:31.418Z,6.45
2019-04-27T02:40:01.268Z,6.47
2019-04-27T02:42:42.837Z,6.47
2019-04-27T02:45:12.639Z,6.10
2019-04-27T02:47:42.595Z,5.85
2019-04-27T02:50:12.394Z,5.47
2019-04-27T02:52:49.831Z,5.80
2019-04-27T02:55:19.929Z,5.62
2019-04-27T02:57:50.116Z,6.12
2019-04-27T03:00:20.630Z,5.92
2019-04-27T03:03:01.944Z,5.75
2019-04-27T03:05:29.939Z,5.70
2019-04-27T03:08:00.082Z,5.80
2019-04-27T03:10:32.166Z,5.92
2019-04-27T03:13:21.308Z,5.60
2019-04-27T03:16:00.474Z,6.10
2019-04-27T03:18:40.510Z,6.08
2019-04-27T03:21:20.126Z,5.75
2019-04-27T03:23:50.137Z,5.78
2019-04-27T03:26:38.990Z,5.78
2019-04-27T03:29:10.876Z,5.17
2019-04-27T03:31:46.254Z,5.15
2019-04-27T03:34:16.428Z,5.62
2019-04-27T03:36:45.440Z,5.80
2019-04-27T03:39:15.219Z,6.00
2019-04-27T03:41:45.059Z,5.22
2019-04-27T03:44:15.209Z,5.37
2019-04-27T03:46:45.302Z,5.87
2019-04-27T03:49:29.399Z,5.78
2019-04-27T03:51:54.023Z,5.30
2019-04-27T03:55:01.207Z,5.60
2019-04-27T03:57:50.147Z,5.50
2019-04-27T04:00:22.993Z,5.28
2019-04-27T04:02:52.853Z,5.25
2019-04-27T04:05:22.706Z,5.30
2019-04-27T04:07:52.769Z,5.60
2019-04-27T04:10:23.722Z,5.20
2019-04-27T04:13:11.498Z,5.03
2019-04-27T04:18:24.254Z,5.20
2019-04-27T04:20:54.827Z,4.80
2019-04-27T04:23:25.022Z,5.17
2019-04-27T04:25:55.302Z,4.92
2019-04-27T04:28:25.504Z,4.65
2019-04-27T04:30:55.533Z,5.35
2019-04-27T04:33:25.774Z,5.30
2019-04-27T04:35:55.539Z,4.78
2019-04-27T04:38:25.693Z,4.78
2019-04-27T04:41:01.220Z,4.58
2019-04-27T04:43:42.466Z,4.40
2019-04-27T04:46:30.455Z,4.80
2019-04-27T04:49:00.708Z,4.33
2019-04-27T04:51:30.652Z,4.70
2019-04-27T04:54:01.038Z,4.17
2019-04-27T04:56:31.196Z,4.20
2019-04-27T04:59:01.376Z,4.45
2019-04-27T05:01:32.118Z,4.50
2019-04-27T05:04:02.448Z,4.45
2019-04-27T05:06:32.521Z,4.50
2019-04-27T05:09:02.210Z,4.78
2019-04-27T05:11:34.766Z,5.00
2019-04-27T05:14:04.563Z,4.45
2019-04-27T05:16:34.782Z,4.95
2019-04-27T05:19:04.595Z,4.60
2019-04-27T05:21:35.842Z,4.83
2019-04-27T05:24:05.978Z,5.10
2019-04-27T05:26:36.478Z,4.72
2019-04-27T05:29:08.965Z,4.22
2019-04-27T05:31:39.023Z,4.80
2019-04-27T05:34:09.569Z,4.58
2019-04-27T05:36:43.547Z,4.58
2019-04-27T05:39:13.222Z,4.75
2019-04-27T05:41:42.631Z,4.72
2019-04-27T05:44:29.255Z,4.30
2019-04-27T05:47:11.673Z,4.83
2019-04-27T05:50:03.694Z,4.70
2019-04-27T05:52:33.539Z,5.00
2019-04-27T05:55:06.609Z,4.70
2019-04-27T05:57:36.390Z,4.95
2019-04-27T06:00:09.216Z,4.58
2019-04-27T06:02:39.824Z,5.12
2019-04-27T06:05:10.020Z,5.00
2019-04-27T06:07:40.234Z,4.55
2019-04-27T06:10:10.013Z,4.60
2019-04-27T06:12:39.793Z,4.60
2019-04-27T06:15:10.278Z,4.65
2019-04-27T06:17:41.185Z,4.42
2019-04-27T06:20:11.007Z,4.60
2019-04-27T06:22:41.080Z,4.42
2019-04-27T06:25:11.811Z,4.60
2019-04-27T06:27:42.744Z,4.28
2019-04-27T06:30:12.545Z,4.30
2019-04-27T06:32:43.306Z,4.45
2019-04-27T06:35:13.536Z,4.78
2019-04-27T06:37:44.448Z,4.53
2019-04-27T06:40:14.666Z,4.35
2019-04-27T06:42:44.815Z,4.33
2019-04-27T06:45:15.010Z,4.12
2019-04-27T06:47:44.926Z,4.40
2019-04-27T06:50:14.804Z,4.30
2019-04-27T06:52:45.059Z,4.28
2019-04-27T06:55:15.088Z,4.15
2019-04-27T06:57:44.967Z,3.95
2019-04-27T07:00:15.038Z,3.85
2019-04-27T07:02:45.237Z,4.08
2019-04-27T07:05:15.462Z,3.85
2019-04-27T07:07:45.820Z,3.72
2019-04-27T07:10:16.010Z,4.10
2019-04-27T07:12:45.877Z,3.60
2019-04-27T07:15:16.453Z,3.90
2019-04-27T07:17:46.295Z,3.92
2019-04-27T07:20:16.385Z,3.80
2019-04-27T07:22:46.700Z,3.95
2019-04-27T07:25:18.800Z,3.17
2019-04-27T07:27:49.341Z,3.15
2019-04-27T07:30:19.383Z,3.30
2019-04-27T07:32:49.769Z,3.22
2019-04-27T07:35:20.720Z,2.60
2019-04-27T07:37:51.043Z,2.98
2019-04-27T07:40:21.079Z,3.25
2019-04-27T07:42:54.977Z,3.10
2019-04-27T07:45:36.926Z,2.77
2019-04-27T07:48:08.956Z,2.98
2019-04-27T07:50:39.964Z,2.90
2019-04-27T07:53:09.879Z,2.77
2019-04-27T07:55:39.872Z,3.00
2019-04-27T07:58:09.817Z,3.30
2019-04-27T08:00:39.937Z,3.40
2019-04-27T08:03:10.129Z,3.40
2019-04-27T08:05:40.127Z,3.10
2019-04-27T08:08:11.153Z,3.50
2019-04-27T08:10:41.127Z,2.87
2019-04-27T08:13:12.535Z,2.80
2019-04-27T08:15:42.259Z,2.80
2019-04-27T08:18:12.521Z,3.05
2019-04-27T08:20:43.281Z,2.30
2019-04-27T08:23:14.633Z,2.95
2019-04-27T08:25:44.511Z,2.60
2019-04-27T08:28:25.512Z,2.90
2019-04-27T08:31:20.649Z,2.40
2019-04-27T08:33:50.960Z,2.70
2019-04-27T08:36:20.810Z,2.98
2019-04-27T08:38:53.579Z,3.10
2019-04-27T08:41:23.519Z,3.00
2019-04-27T08:43:54.134Z,2.70
2019-04-27T08:46:24.428Z,2.67
2019-04-27T08:48:54.576Z,2.95
2019-04-27T08:51:25.795Z,2.10
2019-04-27T08:53:56.798Z,3.17
2019-04-27T08:56:26.888Z,2.80
2019-04-27T08:58:57.102Z,3.27
2019-04-27T09:01:27.446Z,2.67
2019-04-27T09:03:59.291Z,3.05
2019-04-27T09:06:31.575Z,2.17
2019-04-27T09:09:09.511Z,2.83
2019-04-27T09:11:57.138Z,3.02
2019-04-27T09:14:47.202Z,2.45
2019-04-27T09:17:48.881Z,2.42
2019-04-27T09:20:28.727Z,2.20
2019-04-27T09:22:59.300Z,2.30
2019-04-27T09:25:29.714Z,1.55
2019-04-27T09:27:59.813Z,2.05
2019-04-27T09:30:31.318Z,2.12
2019-04-27T09:33:01.256Z,2.00
2019-04-27T09:35:31.243Z,1.70
2019-04-27T09:38:01.250Z,1.98
2019-04-27T09:40:31.267Z,1.95
2019-04-27T09:43:01.118Z,1.85
2019-04-27T09:45:31.101Z,1.75
2019-04-27T09:48:00.870Z,1.27
2019-04-27T09:50:30.920Z,1.10
2019-04-27T09:53:01.836Z,1.40
2019-04-27T09:55:31.994Z,1.20
2019-04-27T09:58:02.346Z,1.30
2019-04-27T10:00:32.107Z,1.20
2019-04-27T10:03:02.373Z,1.07
2019-04-27T10:05:32.166Z,1.30
2019-04-27T10:08:02.300Z,1.40
2019-04-27T10:10:32.144Z,1.42
2019-04-27T10:13:02.398Z,1.62
2019-04-27T10:15:32.302Z,1.30
2019-04-27T10:18:02.964Z,0.80
2019-04-27T10:20:32.878Z,0.80
2019-04-27T10:23:03.008Z,0.72
2019-04-27T10:25:32.943Z,0.60
2019-04-27T10:28:03.776Z,0.80
2019-04-27T10:30:35.411Z,0.70
2019-04-27T10:33:08.207Z,0.88
2019-04-27T10:35:37.982Z,1.30
2019-04-27T10:38:08.349Z,0.70
2019-04-27T10:40:38.306Z,0.68
2019-04-27T10:43:09.011Z,0.80
2019-04-27T10:45:41.053Z,0.60
2019-04-27T10:48:10.914Z,0.80
2019-04-27T10:50:41.846Z,0.53
2019-04-27T10:53:11.680Z,0.90
2019-04-27T10:55:41.686Z,0.62
2019-04-27T10:58:11.718Z,0.72
2019-04-27T11:00:47.712Z,0.60
2019-04-27T11:03:20.796Z,0.47
2019-04-27T11:06:20.407Z,0.65
2019-04-27T11:08:50.364Z,0.60
2019-04-27T11:11:20.515Z,0.50
2019-04-27T11:13:50.783Z,0.53
2019-04-27T11:16:21.259Z,0.45
2019-04-27T11:18:51.821Z,0.80
2019-04-27T11:21:22.267Z,0.40
2019-04-27T11:23:53.102Z,0.55
2019-04-27T11:26:23.318Z,0.60
2019-04-27T11:28:53.671Z,0.55
2019-04-27T11:31:23.796Z,0.60
2019-04-27T11:33:56.504Z,0.60
2019-04-27T11:36:35.523Z,0.33
2019-04-27T11:39:10.157Z,0.50
2019-04-27T11:41:40.521Z,0.42
2019-04-27T11:44:10.408Z,0.40
2019-04-27T11:46:40.668Z,0.40
2019-04-27T11:49:10.434Z,0.68
2019-04-27T11:51:40.996Z,0.50
2019-04-27T11:54:10.914Z,0.40
2019-04-27T11:56:40.881Z,0.60
2019-04-27T11:59:11.714Z,1.07
2019-04-27T12:01:42.099Z,0.80
2019-04-27T12:04:11.966Z,1.00
2019-04-27T12:06:41.827Z,0.80
2019-04-27T12:09:12.588Z,1.00
2019-04-27T12:11:42.558Z,0.70
2019-04-27T12:14:12.392Z,0.90
2019-04-27T12:16:42.917Z,1.20
2019-04-27T12:19:12.786Z,1.07
2019-04-27T12:21:43.063Z,1.10
2019-04-27T12:24:12.991Z,1.20
2019-04-27T12:26:55.805Z,1.07
2019-04-27T12:29:47.338Z,1.10
2019-04-27T12:32:17.943Z,1.00
2019-04-27T12:34:49.423Z,0.90
2019-04-27T12:37:19.309Z,1.02
2019-04-27T12:39:51.481Z,1.00
2019-04-27T12:42:21.584Z,1.20
2019-04-27T12:44:51.871Z,1.15
2019-04-27T12:47:21.664Z,1.55
2019-04-27T12:49:51.552Z,1.40
2019-04-27T12:52:22.818Z,1.20
2019-04-27T12:55:17.211Z,0.72
2019-04-27T12:58:18.281Z,0.60
2019-04-27T13:00:50.285Z,0.88
2019-04-27T13:03:20.161Z,1.40
2019-04-27T13:05:50.029Z,0.65
2019-04-27T13:08:20.205Z,0.50
2019-04-27T13:10:50.333Z,0.68
2019-04-27T13:13:21.072Z,0.88
2019-04-27T13:15:50.854Z,0.68
2019-04-27T13:18:21.143Z,0.70
2019-04-27T13:20:51.342Z,0.75
2019-04-27T13:23:21.184Z,0.50
2019-04-27T13:25:51.089Z,0.75
2019-04-27T13:28:21.005Z,0.70
2019-04-27T13:30:50.851Z,0.70
2019-04-27T13:33:20.673Z,0.78
2019-04-27T13:35:51.263Z,0.82
2019-04-27T13:38:21.179Z,0.82
2019-04-27T13:41:09.999Z,0.80
2019-04-27T13:43:40.092Z,0.70
2019-04-27T13:46:42.633Z,0.60
2019-04-27T13:49:41.222Z,0.68
2019-04-27T13:52:20.347Z,0.60
2019-04-27T13:54:50.302Z,0.50
2019-04-27T13:57:20.121Z,0.50
2019-04-27T13:59:51.606Z,0.80
2019-04-27T14:02:24.264Z,0.53
2019-04-27T14:04:53.702Z,0.60
2019-04-27T14:07:26.449Z,0.42
2019-04-27T14:09:55.566Z,0.75
2019-04-27T14:12:25.341Z,1.00
2019-04-27T14:14:56.434Z,0.68
2019-04-27T14:17:26.151Z,0.80
2019-04-27T14:19:56.354Z,0.95
2019-04-27T14:22:28.200Z,0.90
2019-04-27T14:24:59.260Z,0.93
2019-04-27T14:27:32.861Z,0.90
2019-04-27T14:30:06.353Z,0.70
2019-04-27T14:32:36.442Z,0.80
2019-04-27T14:35:08.410Z,0.90
2019-04-27T14:37:38.624Z,0.70
2019-04-27T14:40:10.150Z,0.80
2019-04-27T14:42:40.096Z,1.02
2019-04-27T14:45:10.418Z,0.80
2019-04-27T14:47:40.731Z,0.88
2019-04-27T14:50:11.119Z,0.78
2019-04-27T14:52:41.269Z,1.27
2019-04-27T14:55:14.530Z,0.62
2019-04-27T14:57:44.884Z,0.50
2019-04-27T15:00:16.702Z,0.60
2019-04-27T15:02:46.490Z,0.70
2019-04-27T15:05:17.150Z,0.80
2019-04-27T15:07:47.541Z,0.65
2019-04-27T15:10:18.029Z,0.70
2019-04-27T15:12:48.938Z,0.70
2019-04-27T15:15:21.417Z,0.90
2019-04-27T15:17:51.472Z,0.80
2019-04-27T15:20:39.201Z,0.90
2019-04-27T15:23:12.267Z,0.90
2019-04-27T15:25:46.796Z,1.20
2019-04-27T15:28:16.921Z,1.00
2019-04-27T15:31:25.377Z,1.05
2019-04-27T15:34:05.995Z,0.95
2019-04-27T15:36:58.320Z,1.15
2019-04-27T15:40:10.025Z,1.30
2019-04-27T15:43:00.122Z,0.95
2019-04-27T15:45:30.342Z,1.10
2019-04-27T15:48:01.733Z,0.93
2019-04-27T15:50:32.360Z,0.82
2019-04-27T15:53:02.831Z,1.20
2019-04-27T15:55:37.407Z,0.90
2019-04-27T15:58:08.187Z,0.93
2019-04-27T16:00:38.354Z,1.02
2019-04-27T16:03:09.893Z,1.00
2019-04-27T16:05:40.846Z,0.90
2019-04-27T16:08:15.337Z,1.00
2019-04-27T16:10:42.532Z,0.80
2019-04-27T16:13:15.095Z,0.90
2019-04-27T16:15:48.190Z,0.78
2019-04-27T16:18:16.081Z,0.60
2019-04-27T16:20:48.384Z,0.70
2019-04-27T16:23:18.259Z,0.82
2019-04-27T16:25:49.360Z,0.60
2019-04-27T16:28:20.406Z,0.88
2019-04-27T16:30:53.782Z,0.90
2019-04-27T16:33:23.618Z,0.82
2019-04-27T16:35:59.499Z,0.90
2019-04-27T16:38:44.369Z,0.80
2019-04-27T16:41:14.463Z,0.80
2019-04-27T16:43:45.718Z,0.88
2019-04-27T16:46:16.246Z,0.85
2019-04-27T16:48:46.179Z,0.93
2019-04-27T16:51:18.443Z,1.27
2019-04-27T16:53:49.700Z,0.45
2019-04-27T16:56:20.780Z,0.42
2019-04-27T16:58:56.577Z,0.57
2019-04-27T17:01:30.001Z,0.40
2019-04-27T17:03:59.338Z,0.50
2019-04-27T17:06:30.811Z,0.50
2019-04-27T17:09:06.821Z,0.60
2019-04-27T17:11:35.291Z,0.78
2019-04-27T17:14:14.601Z,0.50
2019-04-27T17:17:03.681Z,0.68
2019-04-27T17:19:49.953Z,0.75
2019-04-27T17:22:20.193Z,0.85
2019-04-27T17:24:53.068Z,1.00
2019-04-27T17:27:32.811Z,1.00
2019-04-27T17:30:02.829Z,1.02
2019-04-27T17:32:48.647Z,1.07
2019-04-27T17:35:18.393Z,1.00
2019-04-27T17:37:48.976Z,0.90
2019-04-27T17:40:20.613Z,0.80
2019-04-27T17:42:50.459Z,0.82
2019-04-27T17:45:21.685Z,0.80
2019-04-27T17:47:51.914Z,1.35
2019-04-27T17:50:25.121Z,1.30
2019-04-27T17:52:55.341Z,1.02
2019-04-27T17:55:25.876Z,1.40
2019-04-27T17:58:00.549Z,1.10
2019-04-27T18:00:32.993Z,1.00
2019-04-27T18:03:00.636Z,0.78
2019-04-27T18:05:32.390Z,0.80
2019-04-27T18:08:03.171Z,1.07
2019-04-27T18:10:33.224Z,0.90
2019-04-27T18:13:03.135Z,1.00
2019-04-27T18:15:33.143Z,0.90
2019-04-27T18:18:11.665Z,1.25
2019-04-27T18:20:41.651Z,0.90
2019-04-27T18:23:16.199Z,1.15
2019-04-27T18:25:52.535Z,1.17
2019-04-27T18:28:25.423Z,1.10
2019-04-27T18:31:06.464Z,1.40
2019-04-27T18:33:37.132Z,1.35
2019-04-27T18:36:13.711Z,1.25
2019-04-27T18:38:39.530Z,1.20
2019-04-27T18:41:11.753Z,1.02
2019-04-27T18:43:46.401Z,1.42
2019-04-27T18:46:14.988Z,1.35
2019-04-27T18:49:03.698Z,1.27
2019-04-27T18:52:04.623Z,1.10
2019-04-27T18:54:38.322Z,1.52
2019-04-27T18:57:10.881Z,1.07
2019-04-27T18:59:38.555Z,1.20
2019-04-27T19:02:09.259Z,0.98
2019-04-27T19:04:39.365Z,1.37
2019-04-27T19:07:09.642Z,1.42
2019-04-27T19:09:39.503Z,1.52
2019-04-27T19:12:09.887Z,1.75
2019-04-27T19:14:41.207Z,1.82
2019-04-27T19:17:11.498Z,1.40
2019-04-27T19:19:41.416Z,1.45
2019-04-27T19:22:11.716Z,2.37
2019-04-27T19:24:42.998Z,1.98
2019-04-27T19:27:34.833Z,1.80
2019-04-27T19:30:18.950Z,3.40
2019-04-27T19:32:48.814Z,2.37
2019-04-27T19:35:20.006Z,1.90
2019-04-27T19:37:49.852Z,2.22
2019-04-27T19:40:19.816Z,2.27
2019-04-27T19:42:49.782Z,1.98
2019-04-27T19:45:21.136Z,1.90
2019-04-27T19:47:51.588Z,2.05
2019-04-27T19:50:21.643Z,2.15
2019-04-27T19:52:51.989Z,2.02
2019-04-27T19:55:22.535Z,2.20
2019-04-27T19:57:52.836Z,1.90
2019-04-27T20:00:40.609Z,2.45
2019-04-27T20:03:12.218Z,2.45
2019-04-27T20:05:42.372Z,2.08
2019-04-27T20:08:16.642Z,2.37
2019-04-27T20:10:46.572Z,3.22
2019-04-27T20:13:16.473Z,4.35
2019-04-27T20:15:46.657Z,2.70
2019-04-27T20:18:16.899Z,2.60
2019-04-27T20:20:46.645Z,2.75
2019-04-27T20:23:16.486Z,3.02
2019-04-27T20:25:46.409Z,2.62
2019-04-27T20:28:17.946Z,3.30
2019-04-27T20:30:48.182Z,3.22
2019-04-27T20:33:18.043Z,2.83
2019-04-27T20:35:48.368Z,2.75
2019-04-27T20:38:18.425Z,2.83
2019-04-27T20:40:48.326Z,3.20
2019-04-27T20:43:18.222Z,3.02
2019-04-27T20:46:02.712Z,3.17
2019-04-27T20:48:32.317Z,4.55
2019-04-27T20:51:03.112Z,3.37
2019-04-27T20:53:38.974Z,3.00
2019-04-27T20:56:09.675Z,4.83
2019-04-27T20:58:41.103Z,3.65
2019-04-27T21:01:11.355Z,3.20
2019-04-27T21:03:47.373Z,2.92
2019-04-27T21:06:45.693Z,2.98
2019-04-27T21:09:16.971Z,3.05
2019-04-27T21:11:47.606Z,2.67
2019-04-27T21:14:17.795Z,2.77
2019-04-27T21:16:48.480Z,2.50
2019-04-27T21:19:18.406Z,2.80
2019-04-27T21:21:50.879Z,3.00
2019-04-27T21:24:22.663Z,3.30
2019-04-27T21:26:52.487Z,2.42
2019-04-27T21:29:23.105Z,2.30
2019-04-27T21:31:52.968Z,2.62
2019-04-27T21:34:23.272Z,3.17
2019-04-27T21:36:53.257Z,2.35
2019-04-27T21:39:23.337Z,2.02
2019-04-27T21:41:53.237Z,1.98
2019-04-27T21:44:23.125Z,2.15
2019-04-27T21:46:53.313Z,1.70
2019-04-27T21:49:23.426Z,1.80
2019-04-27T21:52:18.970Z,1.65
2019-04-27T21:54:51.191Z,1.60
2019-04-27T21:57:22.838Z,1.50
2019-04-27T21:59:52.672Z,1.75
2019-04-27T22:02:22.967Z,1.77
2019-04-27T22:04:53.069Z,1.60
2019-04-27T22:07:23.083Z,1.60
2019-04-27T22:09:53.573Z,1.60
2019-04-27T22:12:24.814Z,1.60
2019-04-27T22:14:54.599Z,1.20
2019-04-27T22:17:25.399Z,1.67
2019-04-27T22:19:56.472Z,1.30
2019-04-27T22:22:33.496Z,1.65
2019-04-27T22:25:08.543Z,1.42
2019-04-27T22:27:38.611Z,1.30
2019-04-27T22:30:10.984Z,1.50
2019-04-27T22:32:41.467Z,1.90
2019-04-27T22:35:12.837Z,1.40
2019-04-27T22:37:42.718Z,1.12
2019-04-27T22:40:43.617Z,1.12
2019-04-27T22:43:41.739Z,1.20
2019-04-27T22:46:13.564Z,1.30
2019-04-27T22:48:43.842Z,1.22
2019-04-27T22:51:14.044Z,1.30
2019-04-27T22:53:43.986Z,1.15
2019-04-27T22:56:18.908Z,1.20
2019-04-27T22:59:06.961Z,1.27
2019-04-27T23:01:58.686Z,1.42
2019-04-27T23:04:33.768Z,1.30
2019-04-27T23:07:04.124Z,1.10
2019-04-27T23:09:34.794Z,1.20
2019-04-27T23:12:04.728Z,1.30
2019-04-27T23:14:34.599Z,1.30
2019-04-27T23:17:17.517Z,1.00
2019-04-27T23:19:47.378Z,1.35
2019-04-27T23:22:17.553Z,1.15
2019-04-27T23:24:48.172Z,1.32
2019-04-27T23:27:18.107Z,1.20
2019-04-27T23:29:47.905Z,0.98
2019-04-27T23:32:23.868Z,1.27
2019-04-27T23:34:54.406Z,1.20
2019-04-27T23:37:24.330Z,1.05
2019-04-27T23:39:54.170Z,1.37
2019-04-27T23:42:24.501Z,1.40
2019-04-27T23:44:54.368Z,1.37
2019-04-27T23:47:24.394Z,1.20
2019-04-27T23:49:54.290Z,1.50
2019-04-27T23:52:43.838Z,1.20
2019-04-27T23:55:13.704Z,1.12
2019-04-27T23:57:43.919Z,1.75
